createdAt,value
2024-05-09T00:02:08.613Z,5.93
2024-05-09T00:04:35.829Z,5.51
2024-05-09T00:07:02.600Z,5.87
2024-05-09T00:09:29.215Z,5.74
2024-05-09T00:11:55.930Z,5.81
2024-05-09T00:14:22.746Z,5.87
2024-05-09T00:16:49.746Z,5.82
2024-05-09T00:19:16.609Z,5.89
2024-05-09T00:21:43.746Z,5.97
2024-05-09T00:24:11.464Z,5.92
2024-05-09T00:26:38.240Z,5.72
2024-05-09T00:29:05.206Z,5.70
2024-05-09T00:31:31.987Z,5.85
2024-05-09T00:33:58.716Z,5.69
2024-05-09T00:36:25.428Z,5.62
2024-05-09T00:38:52.053Z,5.59
2024-05-09T00:41:19.880Z,5.74
2024-05-09T00:43:46.868Z,5.72
2024-05-09T00:46:13.856Z,5.76
2024-05-09T00:48:41.292Z,5.76
2024-05-09T00:51:08.278Z,5.81
2024-05-09T00:53:35.201Z,5.74
2024-05-09T00:56:02.646Z,5.72
2024-05-09T00:58:30.615Z,5.79
2024-05-09T01:01:00.457Z,5.91
2024-05-09T01:03:27.625Z,5.98
2024-05-09T01:05:54.557Z,6.08
2024-05-09T01:08:21.719Z,6.22
2024-05-09T01:10:48.906Z,6.14
2024-05-09T01:13:15.712Z,6.18
2024-05-09T01:15:43.322Z,6.17
2024-05-09T01:18:12.552Z,6.06
2024-05-09T01:20:53.503Z,5.72
2024-05-09T01:23:20.180Z,5.22
2024-05-09T01:25:47.245Z,4.92
2024-05-09T01:28:14.158Z,4.94
2024-05-09T01:30:40.824Z,5.03
2024-05-09T01:33:09.879Z,5.14
2024-05-09T01:35:40.901Z,5.32
2024-05-09T01:38:09.781Z,5.53
2024-05-09T01:40:39.289Z,5.74
2024-05-09T01:43:11.663Z,5.87
2024-05-09T01:45:42.340Z,5.77
2024-05-09T01:48:09.841Z,5.71
2024-05-09T01:50:40.860Z,5.64
2024-05-09T01:53:11.020Z,5.42
2024-05-09T01:55:37.952Z,5.36
2024-05-09T01:58:05.048Z,5.02
2024-05-09T02:00:38.827Z,5.09
2024-05-09T02:03:15.396Z,5.42
2024-05-09T02:05:45.072Z,5.51
2024-05-09T02:08:20.643Z,5.51
2024-05-09T02:10:49.342Z,5.53
2024-05-09T02:13:16.844Z,5.52
2024-05-09T02:15:43.994Z,5.53
2024-05-09T02:18:11.192Z,5.50
2024-05-09T02:20:39.583Z,5.47
2024-05-09T02:23:07.074Z,5.52
2024-05-09T02:25:34.451Z,5.63
2024-05-09T02:28:01.386Z,5.79
2024-05-09T02:32:57.814Z,5.96
2024-05-09T02:35:24.698Z,5.99
2024-05-09T02:37:51.453Z,5.99
2024-05-09T02:40:25.254Z,5.98
2024-05-09T02:42:55.666Z,5.97
2024-05-09T02:45:22.304Z,6.01
2024-05-09T02:47:49.115Z,6.00
2024-05-09T02:50:23.037Z,6.01
2024-05-09T02:52:55.667Z,6.02
2024-05-09T02:55:22.438Z,6.02
2024-05-09T02:57:49.061Z,6.03
2024-05-09T03:00:22.556Z,6.06
2024-05-09T03:02:53.106Z,6.09
2024-05-09T03:05:20.044Z,6.07
2024-05-09T03:07:46.707Z,6.05
2024-05-09T03:10:21.883Z,6.02
2024-05-09T03:12:51.796Z,5.97
2024-05-09T03:15:18.538Z,5.96
2024-05-09T03:17:45.328Z,5.95
2024-05-09T03:20:20.406Z,5.91
2024-05-09T03:22:52.713Z,5.88
2024-05-09T03:25:20.724Z,5.82
2024-05-09T03:27:48.317Z,5.84
2024-05-09T03:30:22.139Z,5.89
2024-05-09T03:32:56.703Z,5.92
2024-05-09T03:35:23.581Z,5.90
2024-05-09T03:37:50.387Z,5.88
2024-05-09T03:40:23.394Z,5.90
2024-05-09T03:42:52.892Z,5.95
2024-05-09T03:45:19.527Z,5.96
2024-05-09T03:47:46.451Z,5.93
2024-05-09T03:50:21.973Z,5.88
2024-05-09T03:52:52.731Z,5.84
2024-05-09T03:55:19.436Z,5.81
2024-05-09T03:57:46.056Z,5.87
2024-05-09T04:00:18.214Z,5.80
2024-05-09T04:02:52.926Z,5.72
2024-05-09T04:05:19.785Z,5.69
2024-05-09T04:07:46.591Z,5.73
2024-05-09T04:10:21.186Z,5.75
2024-05-09T04:12:54.553Z,5.82
2024-05-09T04:15:21.229Z,5.74
2024-05-09T04:17:51.844Z,5.70
2024-05-09T04:20:29.116Z,5.73
2024-05-09T04:23:03.831Z,5.80
2024-05-09T04:25:31.999Z,5.86
2024-05-09T04:27:58.657Z,5.88
2024-05-09T04:30:34.604Z,5.94
2024-05-09T04:33:06.952Z,5.95
2024-05-09T04:35:34.797Z,6.00
2024-05-09T04:38:01.656Z,6.05
2024-05-09T04:40:33.521Z,6.16
2024-05-09T04:43:04.021Z,6.24
2024-05-09T04:45:30.816Z,6.32
2024-05-09T04:47:58.239Z,6.40
2024-05-09T04:50:33.447Z,6.50
2024-05-09T04:53:04.650Z,6.63
2024-05-09T04:55:31.710Z,6.67
2024-05-09T04:57:58.420Z,6.71
2024-05-09T05:00:32.587Z,6.74
2024-05-09T05:03:10.134Z,6.83
2024-05-09T05:05:40.699Z,6.92
2024-05-09T05:08:15.316Z,7.05
2024-05-09T05:10:43.460Z,7.15
2024-05-09T05:13:20.219Z,7.21
2024-05-09T05:15:49.217Z,7.36
2024-05-09T05:18:16.806Z,7.52
2024-05-09T05:20:43.981Z,7.64
2024-05-09T05:23:13.539Z,7.74
2024-05-09T05:25:41.320Z,7.88
2024-05-09T05:28:08.234Z,8.12
2024-05-09T05:30:37.653Z,8.47
2024-05-09T05:33:07.958Z,9.38
2024-05-09T05:35:35.033Z,10.07
2024-05-09T05:38:02.398Z,10.81
2024-05-09T05:40:36.298Z,11.27
2024-05-09T05:43:05.572Z,11.83
2024-05-09T05:45:32.191Z,11.91
2024-05-09T05:48:00.642Z,12.54
2024-05-09T05:50:35.706Z,12.81
2024-05-09T05:53:07.747Z,12.72
2024-05-09T05:55:42.941Z,12.88
2024-05-09T05:58:17.636Z,12.96
2024-05-09T06:00:44.580Z,13.03
2024-05-09T06:03:13.014Z,12.66
2024-05-09T06:05:40.945Z,13.06
2024-05-09T06:08:08.294Z,12.89
2024-05-09T06:10:39.090Z,13.26
2024-05-09T06:13:13.394Z,13.80
2024-05-09T06:15:41.600Z,13.85
2024-05-09T06:18:10.565Z,14.12
2024-05-09T06:20:39.745Z,14.20
2024-05-09T06:23:07.414Z,14.02
2024-05-09T06:25:35.070Z,13.94
2024-05-09T06:28:02.394Z,14.16
2024-05-09T06:30:37.470Z,14.33
2024-05-09T06:33:07.836Z,14.85
2024-05-09T06:35:35.274Z,14.78
2024-05-09T06:38:02.549Z,14.79
2024-05-09T06:40:37.125Z,15.19
2024-05-09T06:43:11.418Z,15.11
2024-05-09T06:45:39.617Z,14.91
2024-05-09T06:48:07.325Z,14.99
2024-05-09T06:50:37.859Z,15.32
2024-05-09T06:53:06.088Z,15.52
2024-05-09T06:55:32.840Z,15.91
2024-05-09T06:57:59.549Z,15.46
2024-05-09T07:00:34.839Z,15.78
2024-05-09T07:03:13.425Z,15.96
2024-05-09T07:05:42.943Z,15.68
2024-05-09T07:08:09.989Z,16.23
2024-05-09T07:10:37.242Z,16.17
2024-05-09T07:13:11.984Z,16.28
2024-05-09T07:15:39.107Z,15.82
2024-05-09T07:18:15.355Z,15.62
2024-05-09T07:20:43.073Z,15.17
2024-05-09T07:23:10.701Z,14.65
2024-05-09T07:25:38.213Z,14.08
2024-05-09T07:28:05.390Z,13.69
2024-05-09T07:30:34.445Z,13.40
2024-05-09T07:33:03.043Z,13.40
2024-05-09T07:35:30.917Z,13.33
2024-05-09T07:37:58.036Z,13.10
2024-05-09T07:40:32.807Z,13.06
2024-05-09T07:43:13.149Z,13.08
2024-05-09T07:45:49.607Z,13.12
2024-05-09T07:52:37.600Z,12.78
2024-05-09T07:53:45.935Z,12.85
2024-05-09T07:56:16.527Z,13.10
2024-05-09T07:58:44.147Z,13.43
2024-05-09T08:01:10.900Z,13.45
2024-05-09T08:03:38.293Z,13.53
2024-05-09T08:06:05.324Z,13.66
2024-05-09T08:08:31.931Z,13.53
2024-05-09T08:10:58.597Z,13.60
2024-05-09T08:13:25.210Z,13.50
2024-05-09T08:15:52.436Z,13.49
2024-05-09T08:18:19.385Z,13.43
2024-05-09T08:20:48.764Z,13.82
2024-05-09T08:23:15.529Z,14.28
2024-05-09T08:25:42.468Z,14.52
2024-05-09T08:28:09.544Z,14.59
2024-05-09T08:30:37.923Z,14.70
2024-05-09T08:33:06.605Z,14.38
2024-05-09T08:35:34.439Z,14.03
2024-05-09T08:38:06.182Z,14.17
2024-05-09T08:40:36.123Z,14.37
2024-05-09T08:43:12.149Z,14.52
2024-05-09T08:45:44.125Z,14.53
2024-05-09T08:48:14.713Z,14.66
2024-05-09T08:50:43.425Z,14.78
2024-05-09T08:53:10.525Z,14.93
2024-05-09T08:55:40.808Z,15.01
2024-05-09T08:58:15.411Z,14.97
2024-05-09T09:00:44.342Z,14.97
2024-05-09T09:03:15.536Z,14.99
2024-05-09T09:05:52.755Z,15.04
2024-05-09T09:08:20.455Z,14.97
2024-05-09T09:10:47.774Z,15.02
2024-05-09T09:13:14.665Z,15.15
2024-05-09T09:15:48.282Z,15.16
2024-05-09T09:18:16.228Z,14.94
2024-05-09T09:20:43.924Z,15.14
2024-05-09T09:23:10.680Z,15.42
2024-05-09T09:25:40.936Z,15.60
2024-05-09T09:28:08.611Z,15.63
2024-05-09T09:30:42.086Z,15.60
2024-05-09T09:33:12.497Z,15.73
2024-05-09T09:35:40.794Z,15.82
2024-05-09T09:38:10.096Z,15.74
2024-05-09T09:40:45.092Z,15.65
2024-05-09T09:43:19.433Z,15.79
2024-05-09T09:45:49.949Z,15.80
2024-05-09T09:48:17.058Z,16.11
2024-05-09T09:50:45.399Z,16.11
2024-05-09T09:53:13.003Z,16.06
2024-05-09T09:55:40.389Z,16.25
2024-05-09T09:58:09.678Z,16.31
2024-05-09T10:00:38.865Z,16.54
2024-05-09T10:03:05.630Z,16.09
2024-05-09T10:05:33.605Z,16.05
2024-05-09T10:08:04.817Z,16.21
2024-05-09T10:10:33.565Z,16.34
2024-05-09T10:13:01.416Z,16.31
2024-05-09T10:15:28.211Z,16.43
2024-05-09T10:18:05.154Z,16.74
2024-05-09T10:20:49.312Z,16.56
2024-05-09T10:23:43.752Z,16.20
2024-05-09T10:26:10.454Z,15.89
2024-05-09T10:28:43.021Z,15.66
2024-05-09T10:31:10.662Z,15.50
2024-05-09T10:33:48.597Z,15.24
2024-05-09T10:36:41.634Z,15.10
2024-05-09T10:39:08.495Z,15.11
2024-05-09T10:41:38.194Z,15.22
2024-05-09T10:44:37.263Z,15.32
2024-05-09T10:47:04.234Z,15.28
2024-05-09T10:49:31.265Z,15.62
2024-05-09T10:51:57.967Z,15.41
2024-05-09T10:54:24.682Z,15.06
2024-05-09T10:56:57.807Z,15.05
2024-05-09T10:59:24.653Z,15.30
2024-05-09T11:01:51.456Z,15.47
2024-05-09T11:04:18.427Z,15.80
2024-05-09T11:06:46.723Z,16.03
2024-05-09T11:09:14.711Z,15.96
2024-05-09T11:11:41.560Z,15.83
2024-05-09T11:14:14.849Z,16.15
2024-05-09T11:16:41.480Z,15.90
2024-05-09T11:19:13.022Z,15.87
2024-05-09T11:21:40.401Z,16.08
2024-05-09T11:24:10.504Z,16.27
2024-05-09T11:26:37.680Z,16.34
2024-05-09T11:29:04.302Z,16.40
2024-05-09T11:31:31.295Z,16.40
2024-05-09T11:34:00.151Z,16.30
2024-05-09T11:36:26.933Z,16.57
2024-05-09T11:38:53.659Z,16.86
2024-05-09T11:41:20.291Z,16.75
2024-05-09T11:43:46.933Z,16.76
2024-05-09T11:46:13.958Z,17.00
2024-05-09T11:48:40.977Z,17.01
2024-05-09T11:51:07.768Z,16.92
2024-05-09T11:53:34.455Z,16.29
2024-05-09T11:56:01.182Z,16.14
2024-05-09T11:58:28.966Z,16.16
2024-05-09T12:00:57.137Z,16.12
2024-05-09T12:03:24.167Z,16.12
2024-05-09T12:05:51.069Z,16.14
2024-05-09T12:08:17.756Z,15.84
2024-05-09T12:10:44.581Z,15.65
2024-05-09T12:13:11.428Z,15.62
2024-05-09T12:15:38.993Z,15.55
2024-05-09T12:18:07.835Z,15.96
2024-05-09T12:20:38.368Z,16.42
2024-05-09T12:23:08.274Z,16.71
2024-05-09T12:25:36.629Z,16.81
2024-05-09T12:28:03.961Z,16.98
2024-05-09T12:30:36.711Z,16.78
2024-05-09T12:33:15.300Z,16.62
2024-05-09T12:35:44.627Z,16.70
2024-05-09T12:38:14.142Z,16.75
2024-05-09T12:40:40.895Z,16.92
2024-05-09T12:43:08.854Z,16.67
2024-05-09T12:45:36.725Z,16.81
2024-05-09T12:48:06.934Z,16.85
2024-05-09T12:50:34.668Z,16.72
2024-05-09T12:53:02.758Z,16.57
2024-05-09T12:55:36.462Z,16.57
2024-05-09T12:58:08.843Z,16.72
2024-05-09T13:00:36.267Z,16.82
2024-05-09T13:03:03.404Z,16.99
2024-05-09T13:05:30.312Z,17.16
2024-05-09T13:07:57.513Z,16.75
2024-05-09T13:10:31.711Z,16.85
2024-05-09T13:13:01.055Z,16.70
2024-05-09T13:15:28.545Z,16.70
2024-05-09T13:17:58.326Z,16.74
2024-05-09T13:20:32.785Z,16.73
2024-05-09T13:23:03.280Z,16.94
2024-05-09T13:25:30.127Z,16.79
2024-05-09T13:27:57.595Z,16.72
2024-05-09T13:32:54.699Z,16.89
2024-05-09T13:35:21.392Z,16.82
2024-05-09T13:37:48.175Z,16.84
2024-05-09T13:40:19.593Z,17.10
2024-05-09T13:42:49.931Z,16.82
2024-05-09T13:45:16.560Z,17.06
2024-05-09T13:47:43.510Z,17.19
2024-05-09T13:50:16.761Z,17.16
2024-05-09T13:52:49.787Z,17.39
2024-05-09T13:55:16.465Z,17.39
2024-05-09T13:57:43.259Z,17.31
2024-05-09T14:00:22.214Z,17.47
2024-05-09T14:02:57.019Z,17.61
2024-05-09T14:05:23.831Z,17.41
2024-05-09T14:07:50.762Z,17.24
2024-05-09T14:10:23.302Z,17.11
2024-05-09T14:12:55.445Z,17.33
2024-05-09T14:15:22.236Z,17.39
2024-05-09T14:17:48.924Z,17.22
2024-05-09T14:20:23.821Z,17.36
2024-05-09T14:22:57.260Z,17.55
2024-05-09T14:25:26.271Z,17.54
2024-05-09T14:27:53.163Z,17.40
2024-05-09T14:30:29.728Z,17.04
2024-05-09T14:33:01.582Z,17.33
2024-05-09T14:35:28.415Z,17.65
2024-05-09T14:37:55.193Z,17.86
2024-05-09T14:40:34.935Z,17.82
2024-05-09T14:43:06.652Z,17.66
2024-05-09T14:45:34.584Z,17.60
2024-05-09T14:48:02.166Z,17.59
2024-05-09T14:50:35.426Z,17.80
2024-05-09T14:53:05.955Z,17.67
2024-05-09T14:55:35.762Z,17.87
2024-05-09T14:58:03.553Z,18.16
2024-05-09T15:00:35.814Z,18.23
2024-05-09T15:03:05.064Z,18.29
2024-05-09T15:05:32.184Z,18.00
2024-05-09T15:07:59.279Z,18.02
2024-05-09T15:10:33.891Z,18.03
2024-05-09T15:13:02.936Z,17.95
2024-05-09T15:15:30.001Z,17.51
2024-05-09T15:17:56.986Z,17.35
2024-05-09T15:20:31.262Z,17.63
2024-05-09T15:23:02.407Z,17.67
2024-05-09T15:25:29.396Z,17.76
2024-05-09T15:27:56.475Z,17.77
2024-05-09T15:30:30.539Z,17.33
2024-05-09T15:33:00.716Z,17.17
2024-05-09T15:35:27.792Z,17.00
2024-05-09T15:37:54.579Z,17.02
2024-05-09T15:40:30.797Z,17.01
2024-05-09T15:43:04.856Z,17.10
2024-05-09T15:45:32.031Z,17.02
2024-05-09T15:47:59.111Z,16.93
2024-05-09T15:50:35.014Z,16.87
2024-05-09T15:53:05.732Z,16.76
2024-05-09T15:55:33.976Z,16.72
2024-05-09T15:58:02.447Z,16.70
2024-05-09T16:00:37.343Z,16.70
2024-05-09T16:03:07.998Z,16.64
2024-05-09T16:05:34.970Z,16.64
2024-05-09T16:08:02.266Z,16.70
2024-05-09T16:10:32.810Z,16.82
2024-05-09T16:13:01.606Z,16.81
2024-05-09T16:15:28.859Z,16.83
2024-05-09T16:17:56.041Z,16.75
2024-05-09T16:20:34.173Z,16.71
2024-05-09T16:23:06.448Z,16.61
2024-05-09T16:25:33.278Z,16.55
2024-05-09T16:28:00.333Z,16.57
2024-05-09T16:30:34.180Z,16.53
2024-05-09T16:33:04.041Z,16.56
2024-05-09T16:35:31.535Z,16.63
2024-05-09T16:37:58.383Z,16.68
2024-05-09T16:40:34.214Z,16.70
2024-05-09T16:43:05.894Z,16.78
2024-05-09T16:45:33.251Z,16.81
2024-05-09T16:48:00.956Z,16.75
2024-05-09T16:50:32.740Z,16.70
2024-05-09T16:53:01.978Z,16.63
2024-05-09T16:55:28.923Z,16.64
2024-05-09T16:57:56.965Z,16.62
2024-05-09T17:00:35.159Z,16.60
2024-05-09T17:03:08.422Z,16.54
2024-05-09T17:05:36.116Z,16.43
2024-05-09T17:08:03.439Z,16.33
2024-05-09T17:10:33.623Z,16.30
2024-05-09T17:13:03.421Z,16.25
2024-05-09T17:15:31.964Z,16.26
2024-05-09T17:17:58.926Z,16.24
2024-05-09T17:20:32.438Z,16.24
2024-05-09T17:23:03.374Z,16.19
2024-05-09T17:25:30.050Z,16.14
2024-05-09T17:27:57.153Z,16.13
2024-05-09T17:30:32.174Z,16.08
2024-05-09T17:33:03.831Z,16.00
2024-05-09T17:35:31.818Z,16.01
2024-05-09T17:37:59.740Z,15.94
2024-05-09T17:40:32.713Z,15.90
2024-05-09T17:43:03.094Z,15.87
2024-05-09T17:45:30.036Z,15.85
2024-05-09T17:47:56.924Z,15.83
2024-05-09T17:50:30.393Z,15.78
2024-05-09T17:53:01.481Z,15.73
2024-05-09T17:55:28.671Z,15.64
2024-05-09T17:57:55.711Z,15.62
2024-05-09T18:00:32.915Z,15.58
2024-05-09T18:03:05.871Z,15.54
2024-05-09T18:05:33.038Z,15.47
2024-05-09T18:07:59.990Z,15.38
2024-05-09T18:10:33.708Z,15.31
2024-05-09T18:13:05.997Z,15.27
2024-05-09T18:15:33.292Z,15.15
2024-05-09T18:18:00.741Z,15.07
2024-05-09T18:20:37.613Z,15.02
2024-05-09T18:23:10.717Z,14.91
2024-05-09T18:25:37.519Z,14.86
2024-05-09T18:28:04.673Z,14.77
2024-05-09T18:30:35.087Z,14.69
2024-05-09T18:33:05.371Z,14.65
2024-05-09T18:35:33.559Z,14.59
2024-05-09T18:38:00.676Z,14.56
2024-05-09T18:40:33.134Z,14.59
2024-05-09T18:43:04.204Z,14.50
2024-05-09T18:45:31.246Z,14.47
2024-05-09T18:47:58.932Z,14.42
2024-05-09T18:50:32.622Z,14.38
2024-05-09T18:53:06.256Z,14.34
2024-05-09T18:55:33.290Z,14.35
2024-05-09T18:58:00.208Z,14.37
2024-05-09T19:00:34.128Z,14.30
2024-05-09T19:03:06.151Z,14.19
2024-05-09T19:05:35.576Z,14.09
2024-05-09T19:08:02.840Z,14.04
2024-05-09T19:10:34.243Z,13.98
2024-05-09T19:13:06.696Z,13.94
2024-05-09T19:15:37.716Z,13.89
2024-05-09T19:18:04.932Z,13.87
2024-05-09T19:20:34.660Z,13.83
2024-05-09T19:23:03.283Z,13.79
2024-05-09T19:25:30.192Z,13.78
2024-05-09T19:27:56.968Z,13.78
2024-05-09T19:30:30.549Z,13.74
2024-05-09T19:33:05.862Z,13.76
2024-05-09T19:35:32.949Z,13.66
2024-05-09T19:37:59.794Z,13.57
2024-05-09T19:40:31.402Z,13.57
2024-05-09T19:43:01.157Z,13.62
2024-05-09T19:45:28.229Z,13.60
2024-05-09T19:47:55.391Z,13.59
2024-05-09T19:50:30.822Z,13.57
2024-05-09T19:53:04.055Z,13.52
2024-05-09T19:55:30.732Z,13.48
2024-05-09T19:57:57.889Z,13.43
2024-05-09T20:00:32.652Z,13.33
2024-05-09T20:03:03.129Z,13.19
2024-05-09T20:05:31.193Z,13.06
2024-05-09T20:07:58.326Z,12.91
2024-05-09T20:10:31.366Z,12.76
2024-05-09T20:13:00.493Z,12.67
2024-05-09T20:15:27.261Z,12.60
2024-05-09T20:17:54.481Z,12.57
2024-05-09T20:20:32.116Z,12.57
2024-05-09T20:23:04.191Z,12.56
2024-05-09T20:25:30.852Z,12.55
2024-05-09T20:27:57.574Z,12.53
2024-05-09T20:30:31.322Z,12.50
2024-05-09T20:33:00.503Z,12.47
2024-05-09T20:35:30.478Z,12.47
2024-05-09T20:37:57.266Z,12.43
2024-05-09T20:40:29.231Z,12.37
2024-05-09T20:43:00.218Z,12.32
2024-05-09T20:45:27.086Z,12.33
2024-05-09T20:47:54.153Z,12.31
2024-05-09T20:50:28.980Z,12.26
2024-05-09T20:53:03.625Z,12.23
2024-05-09T20:55:30.514Z,12.19
2024-05-09T20:57:57.449Z,12.21
2024-05-09T21:00:33.780Z,12.18
2024-05-09T21:03:06.302Z,12.23
2024-05-09T21:05:33.699Z,12.26
2024-05-09T21:08:00.759Z,12.25
2024-05-09T21:10:31.572Z,12.14
2024-05-09T21:12:59.731Z,12.04
2024-05-09T21:15:26.398Z,11.97
2024-05-09T21:17:53.123Z,11.90
2024-05-09T21:20:24.391Z,11.80
2024-05-09T21:22:57.690Z,11.69
2024-05-09T21:25:24.461Z,11.61
2024-05-09T21:27:51.488Z,11.55
2024-05-09T21:30:27.317Z,11.50
2024-05-09T21:32:59.963Z,11.46
2024-05-09T21:35:26.778Z,11.50
2024-05-09T21:37:53.554Z,11.44
2024-05-09T21:40:27.369Z,11.40
2024-05-09T21:43:00.940Z,11.34
2024-05-09T21:45:27.860Z,11.33
2024-05-09T21:47:54.778Z,11.29
2024-05-09T21:50:28.076Z,11.23
2024-05-09T21:52:59.307Z,11.22
2024-05-09T21:55:25.941Z,11.21
2024-05-09T21:57:52.683Z,11.17
2024-05-09T22:00:28.840Z,11.15
2024-05-09T22:03:02.287Z,11.12
2024-05-09T22:05:29.500Z,11.12
2024-05-09T22:07:56.914Z,11.10
2024-05-09T22:10:30.515Z,11.06
2024-05-09T22:13:01.262Z,11.05
2024-05-09T22:15:28.088Z,11.09
2024-05-09T22:17:56.428Z,11.03
2024-05-09T22:20:32.861Z,10.98
2024-05-09T22:23:04.000Z,10.98
2024-05-09T22:25:31.727Z,10.90
2024-05-09T22:27:59.133Z,10.86
2024-05-09T22:30:34.316Z,10.86
2024-05-09T22:33:05.753Z,10.82
2024-05-09T22:35:32.949Z,10.81
2024-05-09T22:37:59.809Z,10.76
2024-05-09T22:40:38.145Z,10.73
2024-05-09T22:43:13.096Z,10.75
2024-05-09T22:45:39.931Z,10.78
2024-05-09T22:48:08.258Z,10.89
2024-05-09T22:50:35.122Z,10.93
2024-05-09T22:53:01.862Z,10.87
2024-05-09T22:55:28.675Z,10.81
2024-05-09T22:57:55.538Z,10.79
2024-05-09T23:00:30.820Z,10.75
2024-05-09T23:03:00.457Z,10.69
2024-05-09T23:05:27.490Z,10.65
2024-05-09T23:07:54.357Z,10.69
2024-05-09T23:10:28.165Z,10.61
2024-05-09T23:13:01.682Z,10.52
2024-05-09T23:15:28.864Z,10.44
2024-05-09T23:17:55.789Z,10.43
2024-05-09T23:20:33.200Z,10.36
2024-05-09T23:23:05.140Z,10.31
2024-05-09T23:25:31.923Z,10.26
2024-05-09T23:27:58.903Z,10.23
2024-05-09T23:30:33.764Z,10.19
2024-05-09T23:33:05.439Z,10.14
2024-05-09T23:35:32.283Z,10.11
2024-05-09T23:37:58.895Z,10.09
2024-05-09T23:40:36.790Z,10.06
2024-05-09T23:43:07.203Z,10.02
2024-05-09T23:45:34.227Z,10.02
2024-05-09T23:48:01.408Z,10.03
2024-05-09T23:50:34.587Z,10.03
2024-05-09T23:53:05.117Z,9.97
2024-05-09T23:55:32.397Z,9.94
2024-05-09T23:57:59.836Z,9.94
